sensor_id;sensor_type;location;lat;lon;timestamp;temperature;humidity
1786;DHT22;890;48.158;11.540;2023-05-20T00:00:45;14.80;84.10
1786;DHT22;890;48.158;11.540;2023-05-20T00:03:14;14.70;84.20
1786;DHT22;890;48.158;11.540;2023-05-20T00:05:39;14.70;84.50
1786;DHT22;890;48.158;11.540;2023-05-20T00:08:05;14.60;84.50
1786;DHT22;890;48.158;11.540;2023-05-20T00:10:34;14.60;84.50
1786;DHT22;890;48.158;11.540;2023-05-20T00:13:00;14.60;84.60
1786;DHT22;890;48.158;11.540;2023-05-20T00:15:25;14.60;84.70
1786;DHT22;890;48.158;11.540;2023-05-20T00:17:51;14.50;84.80
1786;DHT22;890;48.158;11.540;2023-05-20T00:20:17;14.50;85.00
1786;DHT22;890;48.158;11.540;2023-05-20T00:22:42;14.60;85.10
1786;DHT22;890;48.158;11.540;2023-05-20T00:25:08;14.60;85.10
1786;DHT22;890;48.158;11.540;2023-05-20T00:27:34;14.60;85.00
1786;DHT22;890;48.158;11.540;2023-05-20T00:29:59;14.60;85.10
1786;DHT22;890;48.158;11.540;2023-05-20T00:32:25;14.60;85.30
1786;DHT22;890;48.158;11.540;2023-05-20T00:34:57;14.60;85.40
1786;DHT22;890;48.158;11.540;2023-05-20T00:37:24;14.50;85.50
1786;DHT22;890;48.158;11.540;2023-05-20T00:39:49;14.50;85.60
1786;DHT22;890;48.158;11.540;2023-05-20T00:42:20;14.60;85.80
1786;DHT22;890;48.158;11.540;2023-05-20T00:44:45;14.60;85.80
1786;DHT22;890;48.158;11.540;2023-05-20T00:47:12;14.60;85.80
1786;DHT22;890;48.158;11.540;2023-05-20T00:49:37;14.60;86.40
1786;DHT22;890;48.158;11.540;2023-05-20T00:52:04;14.60;85.90
1786;DHT22;890;48.158;11.540;2023-05-20T00:54:30;14.50;86.00
1786;DHT22;890;48.158;11.540;2023-05-20T00:56:56;14.50;86.20
1786;DHT22;890;48.158;11.540;2023-05-20T00:59:22;14.60;86.30
1786;DHT22;890;48.158;11.540;2023-05-20T01:01:48;14.60;86.30
1786;DHT22;890;48.158;11.540;2023-05-20T01:04:14;14.70;86.30
1786;DHT22;890;48.158;11.540;2023-05-20T01:06:40;14.60;86.20
1786;DHT22;890;48.158;11.540;2023-05-20T01:09:05;14.60;86.30
1786;DHT22;890;48.158;11.540;2023-05-20T01:11:39;14.60;86.20
1786;DHT22;890;48.158;11.540;2023-05-20T01:14:10;14.50;86.50
1786;DHT22;890;48.158;11.540;2023-05-20T01:16:38;14.60;86.70
1786;DHT22;890;48.158;11.540;2023-05-20T01:19:07;14.50;86.80
1786;DHT22;890;48.158;11.540;2023-05-20T01:21:37;14.40;86.90
1786;DHT22;890;48.158;11.540;2023-05-20T01:24:03;14.40;87.00
1786;DHT22;890;48.158;11.540;2023-05-20T01:26:30;14.40;87.20
1786;DHT22;890;48.158;11.540;2023-05-20T01:28:55;14.40;87.20
1786;DHT22;890;48.158;11.540;2023-05-20T01:31:26;14.50;87.50
1786;DHT22;890;48.158;11.540;2023-05-20T01:33:55;14.40;87.50
1786;DHT22;890;48.158;11.540;2023-05-20T01:36:24;14.40;87.50
1786;DHT22;890;48.158;11.540;2023-05-20T01:38:52;14.50;87.70
1786;DHT22;890;48.158;11.540;2023-05-20T01:41:19;14.40;87.70
1786;DHT22;890;48.158;11.540;2023-05-20T01:43:45;14.50;88.00
1786;DHT22;890;48.158;11.540;2023-05-20T01:46:11;14.50;88.00
1786;DHT22;890;48.158;11.540;2023-05-20T01:48:36;14.40;87.90
1786;DHT22;890;48.158;11.540;2023-05-20T01:51:02;14.40;88.10
1786;DHT22;890;48.158;11.540;2023-05-20T01:53:28;14.40;88.30
1786;DHT22;890;48.158;11.540;2023-05-20T01:55:54;14.40;88.30
1786;DHT22;890;48.158;11.540;2023-05-20T01:58:19;14.40;88.40
1786;DHT22;890;48.158;11.540;2023-05-20T02:00:45;14.40;88.60
1786;DHT22;890;48.158;11.540;2023-05-20T02:03:10;14.40;88.70
1786;DHT22;890;48.158;11.540;2023-05-20T02:05:36;14.40;88.80
1786;DHT22;890;48.158;11.540;2023-05-20T02:08:02;14.30;88.70
1786;DHT22;890;48.158;11.540;2023-05-20T02:10:27;14.30;89.00
1786;DHT22;890;48.158;11.540;2023-05-20T02:12:53;14.30;89.00
1786;DHT22;890;48.158;11.540;2023-05-20T02:15:18;14.30;89.10
1786;DHT22;890;48.158;11.540;2023-05-20T02:17:45;14.40;89.10
1786;DHT22;890;48.158;11.540;2023-05-20T02:20:11;14.30;89.20
1786;DHT22;890;48.158;11.540;2023-05-20T02:22:38;14.30;89.30
1786;DHT22;890;48.158;11.540;2023-05-20T02:25:04;14.30;89.40
1786;DHT22;890;48.158;11.540;2023-05-20T02:27:29;14.30;89.40
1786;DHT22;890;48.158;11.540;2023-05-20T02:29:56;14.30;89.50
1786;DHT22;890;48.158;11.540;2023-05-20T02:32:21;14.30;89.70
1786;DHT22;890;48.158;11.540;2023-05-20T02:34:52;14.30;89.70
1786;DHT22;890;48.158;11.540;2023-05-20T02:37:18;14.30;89.70
1786;DHT22;890;48.158;11.540;2023-05-20T02:39:44;14.20;90.00
1786;DHT22;890;48.158;11.540;2023-05-20T02:42:09;14.30;90.10
1786;DHT22;890;48.158;11.540;2023-05-20T02:44:35;14.30;90.20
1786;DHT22;890;48.158;11.540;2023-05-20T02:47:00;14.30;90.20
1786;DHT22;890;48.158;11.540;2023-05-20T02:49:26;14.30;90.10
1786;DHT22;890;48.158;11.540;2023-05-20T02:51:51;14.30;90.20
1786;DHT22;890;48.158;11.540;2023-05-20T02:54:17;14.30;90.20
1786;DHT22;890;48.158;11.540;2023-05-20T02:56:42;14.30;90.20
1786;DHT22;890;48.158;11.540;2023-05-20T02:59:08;14.30;90.20
1786;DHT22;890;48.158;11.540;2023-05-20T03:01:33;14.30;90.30
1786;DHT22;890;48.158;11.540;2023-05-20T03:04:01;14.30;90.30
1786;DHT22;890;48.158;11.540;2023-05-20T03:06:27;14.30;90.40
1786;DHT22;890;48.158;11.540;2023-05-20T03:08:54;14.30;90.40
1786;DHT22;890;48.158;11.540;2023-05-20T03:11:20;14.30;90.50
1786;DHT22;890;48.158;11.540;2023-05-20T03:13:46;14.20;90.50
1786;DHT22;890;48.158;11.540;2023-05-20T03:16:11;14.20;90.60
1786;DHT22;890;48.158;11.540;2023-05-20T03:18:37;14.20;90.80
1786;DHT22;890;48.158;11.540;2023-05-20T03:21:03;14.20;90.90
1786;DHT22;890;48.158;11.540;2023-05-20T03:23:29;14.20;91.00
1786;DHT22;890;48.158;11.540;2023-05-20T03:25:54;14.20;91.00
1786;DHT22;890;48.158;11.540;2023-05-20T03:28:20;14.20;91.00
1786;DHT22;890;48.158;11.540;2023-05-20T03:30:46;14.20;91.00
1786;DHT22;890;48.158;11.540;2023-05-20T03:33:11;14.30;91.10
1786;DHT22;890;48.158;11.540;2023-05-20T03:35:37;14.30;91.20
1786;DHT22;890;48.158;11.540;2023-05-20T03:38:02;14.30;91.30
1786;DHT22;890;48.158;11.540;2023-05-20T03:40:28;14.30;91.30
1786;DHT22;890;48.158;11.540;2023-05-20T03:42:53;14.30;91.20
1786;DHT22;890;48.158;11.540;2023-05-20T03:45:19;14.20;91.30
1786;DHT22;890;48.158;11.540;2023-05-20T03:47:45;14.20;91.40
1786;DHT22;890;48.158;11.540;2023-05-20T03:50:10;14.20;91.50
1786;DHT22;890;48.158;11.540;2023-05-20T03:52:36;14.20;91.50
1786;DHT22;890;48.158;11.540;2023-05-20T03:55:02;14.20;91.60
1786;DHT22;890;48.158;11.540;2023-05-20T03:57:28;14.20;91.60
1786;DHT22;890;48.158;11.540;2023-05-20T03:59:54;14.20;91.70
1786;DHT22;890;48.158;11.540;2023-05-20T04:02:20;14.20;91.80
1786;DHT22;890;48.158;11.540;2023-05-20T04:04:46;14.20;91.90
1786;DHT22;890;48.158;11.540;2023-05-20T04:07:11;14.20;91.80
1786;DHT22;890;48.158;11.540;2023-05-20T04:09:38;14.20;91.80
1786;DHT22;890;48.158;11.540;2023-05-20T04:12:04;14.20;91.80
1786;DHT22;890;48.158;11.540;2023-05-20T04:14:30;14.30;92.00
1786;DHT22;890;48.158;11.540;2023-05-20T04:16:58;14.30;92.00
1786;DHT22;890;48.158;11.540;2023-05-20T04:19:23;14.30;91.90
1786;DHT22;890;48.158;11.540;2023-05-20T04:21:52;14.20;91.90
1786;DHT22;890;48.158;11.540;2023-05-20T04:24:18;14.20;92.00
1786;DHT22;890;48.158;11.540;2023-05-20T04:26:43;14.20;92.10
1786;DHT22;890;48.158;11.540;2023-05-20T04:29:09;14.20;92.10
1786;DHT22;890;48.158;11.540;2023-05-20T04:31:36;14.20;92.20
1786;DHT22;890;48.158;11.540;2023-05-20T04:34:02;14.20;92.20
1786;DHT22;890;48.158;11.540;2023-05-20T04:36:29;14.20;92.20
1786;DHT22;890;48.158;11.540;2023-05-20T04:38:55;14.10;92.20
1786;DHT22;890;48.158;11.540;2023-05-20T04:41:20;14.10;92.40
1786;DHT22;890;48.158;11.540;2023-05-20T04:43:46;14.10;92.50
1786;DHT22;890;48.158;11.540;2023-05-20T04:46:12;14.10;92.60
1786;DHT22;890;48.158;11.540;2023-05-20T04:48:38;14.20;92.70
1786;DHT22;890;48.158;11.540;2023-05-20T04:51:03;14.20;92.80
1786;DHT22;890;48.158;11.540;2023-05-20T04:53:29;14.20;92.70
1786;DHT22;890;48.158;11.540;2023-05-20T04:55:55;14.20;93.00
1786;DHT22;890;48.158;11.540;2023-05-20T04:58:22;14.20;92.80
1786;DHT22;890;48.158;11.540;2023-05-20T05:00:50;14.20;92.90
1786;DHT22;890;48.158;11.540;2023-05-20T05:03:16;14.30;93.00
1786;DHT22;890;48.158;11.540;2023-05-20T05:05:42;14.30;93.00
1786;DHT22;890;48.158;11.540;2023-05-20T05:08:08;14.30;93.00
1786;DHT22;890;48.158;11.540;2023-05-20T05:10:34;14.30;93.10
1786;DHT22;890;48.158;11.540;2023-05-20T05:13:00;14.40;93.10
1786;DHT22;890;48.158;11.540;2023-05-20T05:15:27;14.30;93.00
1786;DHT22;890;48.158;11.540;2023-05-20T05:17:53;14.30;93.00
1786;DHT22;890;48.158;11.540;2023-05-20T05:20:18;14.20;93.10
1786;DHT22;890;48.158;11.540;2023-05-20T05:22:44;14.20;93.30
1786;DHT22;890;48.158;11.540;2023-05-20T05:25:10;14.20;93.50
1786;DHT22;890;48.158;11.540;2023-05-20T05:27:36;14.20;93.60
1786;DHT22;890;48.158;11.540;2023-05-20T05:30:03;14.20;93.70
1786;DHT22;890;48.158;11.540;2023-05-20T05:32:29;14.20;93.70
1786;DHT22;890;48.158;11.540;2023-05-20T05:34:54;14.20;93.70
1786;DHT22;890;48.158;11.540;2023-05-20T05:37:20;14.20;93.70
1786;DHT22;890;48.158;11.540;2023-05-20T05:39:46;14.20;93.70
1786;DHT22;890;48.158;11.540;2023-05-20T05:42:12;14.30;93.70
1786;DHT22;890;48.158;11.540;2023-05-20T05:44:37;14.30;93.80
1786;DHT22;890;48.158;11.540;2023-05-20T05:47:03;14.30;93.90
1786;DHT22;890;48.158;11.540;2023-05-20T05:49:30;14.30;94.20
1786;DHT22;890;48.158;11.540;2023-05-20T05:51:55;14.30;94.20
1786;DHT22;890;48.158;11.540;2023-05-20T05:54:21;14.30;94.20
1786;DHT22;890;48.158;11.540;2023-05-20T05:56:47;14.40;94.30
1786;DHT22;890;48.158;11.540;2023-05-20T05:59:14;14.40;94.10
1786;DHT22;890;48.158;11.540;2023-05-20T06:01:40;14.40;94.10
1786;DHT22;890;48.158;11.540;2023-05-20T06:04:06;14.30;94.10
1786;DHT22;890;48.158;11.540;2023-05-20T06:06:31;14.40;94.20
1786;DHT22;890;48.158;11.540;2023-05-20T06:08:57;14.40;94.10
1786;DHT22;890;48.158;11.540;2023-05-20T06:11:23;14.40;94.20
1786;DHT22;890;48.158;11.540;2023-05-20T06:13:49;14.40;94.20
1786;DHT22;890;48.158;11.540;2023-05-20T06:16:15;14.50;94.30
1786;DHT22;890;48.158;11.540;2023-05-20T06:18:41;14.50;94.40
1786;DHT22;890;48.158;11.540;2023-05-20T06:21:07;14.50;94.30
1786;DHT22;890;48.158;11.540;2023-05-20T06:23:33;14.50;94.20
1786;DHT22;890;48.158;11.540;2023-05-20T06:25:59;14.50;94.20
1786;DHT22;890;48.158;11.540;2023-05-20T06:28:25;14.70;94.00
1786;DHT22;890;48.158;11.540;2023-05-20T06:30:52;14.70;93.50
1786;DHT22;890;48.158;11.540;2023-05-20T06:33:19;14.70;93.60
1786;DHT22;890;48.158;11.540;2023-05-20T06:35:45;14.80;93.70
1786;DHT22;890;48.158;11.540;2023-05-20T06:38:10;14.90;93.70
1786;DHT22;890;48.158;11.540;2023-05-20T06:40:36;15.10;93.80
1786;DHT22;890;48.158;11.540;2023-05-20T06:43:01;15.10;93.50
1786;DHT22;890;48.158;11.540;2023-05-20T06:45:27;15.20;93.30
1786;DHT22;890;48.158;11.540;2023-05-20T06:47:53;15.30;93.00
1786;DHT22;890;48.158;11.540;2023-05-20T06:50:19;15.30;92.90
1786;DHT22;890;48.158;11.540;2023-05-20T06:52:45;15.20;92.80
1786;DHT22;890;48.158;11.540;2023-05-20T06:55:11;15.20;92.80
1786;DHT22;890;48.158;11.540;2023-05-20T06:57:37;15.30;92.90
1786;DHT22;890;48.158;11.540;2023-05-20T07:00:03;15.30;92.80
1786;DHT22;890;48.158;11.540;2023-05-20T07:02:31;15.30;92.80
1786;DHT22;890;48.158;11.540;2023-05-20T07:04:57;15.30;92.70
1786;DHT22;890;48.158;11.540;2023-05-20T07:07:23;15.30;92.70
1786;DHT22;890;48.158;11.540;2023-05-20T07:09:49;15.40;92.70
1786;DHT22;890;48.158;11.540;2023-05-20T07:12:15;15.60;92.90
1786;DHT22;890;48.158;11.540;2023-05-20T07:14:41;15.70;92.70
1786;DHT22;890;48.158;11.540;2023-05-20T07:17:06;15.90;92.40
1786;DHT22;890;48.158;11.540;2023-05-20T07:19:32;16.10;92.10
1786;DHT22;890;48.158;11.540;2023-05-20T07:21:58;16.30;92.00
1786;DHT22;890;48.158;11.540;2023-05-20T07:24:23;16.20;91.50
1786;DHT22;890;48.158;11.540;2023-05-20T07:26:49;16.30;91.00
1786;DHT22;890;48.158;11.540;2023-05-20T07:29:15;16.30;91.10
1786;DHT22;890;48.158;11.540;2023-05-20T07:31:40;16.30;91.00
1786;DHT22;890;48.158;11.540;2023-05-20T07:34:06;16.30;90.70
1786;DHT22;890;48.158;11.540;2023-05-20T07:36:31;16.20;90.30
1786;DHT22;890;48.158;11.540;2023-05-20T07:38:57;16.10;90.40
1786;DHT22;890;48.158;11.540;2023-05-20T07:41:23;16.10;90.80
1786;DHT22;890;48.158;11.540;2023-05-20T07:43:48;16.10;90.50
1786;DHT22;890;48.158;11.540;2023-05-20T07:46:14;16.10;90.60
1786;DHT22;890;48.158;11.540;2023-05-20T07:48:40;16.20;90.70
1786;DHT22;890;48.158;11.540;2023-05-20T07:51:06;16.40;90.80
1786;DHT22;890;48.158;11.540;2023-05-20T07:53:32;16.60;91.00
1786;DHT22;890;48.158;11.540;2023-05-20T07:55:58;16.90;90.50
1786;DHT22;890;48.158;11.540;2023-05-20T07:58:23;17.00;90.10
1786;DHT22;890;48.158;11.540;2023-05-20T08:00:49;17.00;89.30
1786;DHT22;890;48.158;11.540;2023-05-20T08:03:15;17.10;88.90
1786;DHT22;890;48.158;11.540;2023-05-20T08:05:41;17.10;88.80
1786;DHT22;890;48.158;11.540;2023-05-20T08:08:07;17.10;88.60
1786;DHT22;890;48.158;11.540;2023-05-20T08:10:35;17.20;88.70
1786;DHT22;890;48.158;11.540;2023-05-20T08:13:00;17.40;88.80
1786;DHT22;890;48.158;11.540;2023-05-20T08:15:26;17.70;88.50
1786;DHT22;890;48.158;11.540;2023-05-20T08:17:51;17.90;87.80
1786;DHT22;890;48.158;11.540;2023-05-20T08:20:19;18.20;86.40
1786;DHT22;890;48.158;11.540;2023-05-20T08:22:44;18.30;85.20
1786;DHT22;890;48.158;11.540;2023-05-20T08:25:10;18.40;84.20
1786;DHT22;890;48.158;11.540;2023-05-20T08:27:36;18.40;83.50
1786;DHT22;890;48.158;11.540;2023-05-20T08:30:02;18.40;82.90
1786;DHT22;890;48.158;11.540;2023-05-20T08:32:28;18.40;82.30
1786;DHT22;890;48.158;11.540;2023-05-20T08:34:54;18.50;82.40
1786;DHT22;890;48.158;11.540;2023-05-20T08:37:19;18.60;82.40
1786;DHT22;890;48.158;11.540;2023-05-20T08:39:45;18.60;81.90
1786;DHT22;890;48.158;11.540;2023-05-20T08:42:12;18.70;81.80
1786;DHT22;890;48.158;11.540;2023-05-20T08:44:38;18.90;81.30
1786;DHT22;890;48.158;11.540;2023-05-20T08:47:05;19.00;81.00
1786;DHT22;890;48.158;11.540;2023-05-20T08:49:31;19.10;80.70
1786;DHT22;890;48.158;11.540;2023-05-20T08:51:59;19.30;80.30
1786;DHT22;890;48.158;11.540;2023-05-20T08:57:08;19.40;79.30
1786;DHT22;890;48.158;11.540;2023-05-20T08:59:35;19.50;78.90
1786;DHT22;890;48.158;11.540;2023-05-20T09:02:01;19.60;78.50
1786;DHT22;890;48.158;11.540;2023-05-20T09:04:27;19.70;78.40
1786;DHT22;890;48.158;11.540;2023-05-20T09:06:52;19.80;78.10
1786;DHT22;890;48.158;11.540;2023-05-20T09:09:19;19.90;77.60
1786;DHT22;890;48.158;11.540;2023-05-20T09:11:45;20.00;76.70
1786;DHT22;890;48.158;11.540;2023-05-20T09:14:10;20.20;76.40
1786;DHT22;890;48.158;11.540;2023-05-20T09:16:39;20.30;76.00
1786;DHT22;890;48.158;11.540;2023-05-20T09:19:05;20.50;75.80
1786;DHT22;890;48.158;11.540;2023-05-20T09:21:31;20.70;75.20
1786;DHT22;890;48.158;11.540;2023-05-20T09:24:00;21.00;75.00
1786;DHT22;890;48.158;11.540;2023-05-20T09:26:27;21.30;73.70
1786;DHT22;890;48.158;11.540;2023-05-20T09:28:55;21.50;72.90
1786;DHT22;890;48.158;11.540;2023-05-20T09:31:29;21.40;71.00
1786;DHT22;890;48.158;11.540;2023-05-20T09:33:55;21.30;70.90
1786;DHT22;890;48.158;11.540;2023-05-20T09:36:22;21.40;70.90
1786;DHT22;890;48.158;11.540;2023-05-20T09:38:51;21.40;71.40
1786;DHT22;890;48.158;11.540;2023-05-20T09:41:22;21.50;70.70
1786;DHT22;890;48.158;11.540;2023-05-20T09:43:49;21.50;70.40
1786;DHT22;890;48.158;11.540;2023-05-20T09:46:16;21.70;69.20
1786;DHT22;890;48.158;11.540;2023-05-20T09:48:43;21.80;68.10
1786;DHT22;890;48.158;11.540;2023-05-20T09:51:10;21.80;67.30
1786;DHT22;890;48.158;11.540;2023-05-20T09:53:37;21.90;66.80
1786;DHT22;890;48.158;11.540;2023-05-20T09:56:03;21.80;66.20
1786;DHT22;890;48.158;11.540;2023-05-20T09:58:29;21.90;66.40
1786;DHT22;890;48.158;11.540;2023-05-20T10:00:55;22.20;67.30
1786;DHT22;890;48.158;11.540;2023-05-20T10:03:21;22.70;67.40
1786;DHT22;890;48.158;11.540;2023-05-20T10:06:23;23.20;67.70
1786;DHT22;890;48.158;11.540;2023-05-20T10:17:26;23.60;59.60
1786;DHT22;890;48.158;11.540;2023-05-20T10:20:00;23.30;59.00
1786;DHT22;890;48.158;11.540;2023-05-20T10:22:27;22.90;59.00
1786;DHT22;890;48.158;11.540;2023-05-20T10:25:03;22.80;59.80
1786;DHT22;890;48.158;11.540;2023-05-20T10:27:44;22.70;60.00
1786;DHT22;890;48.158;11.540;2023-05-20T10:30:21;22.70;60.30
1786;DHT22;890;48.158;11.540;2023-05-20T10:32:57;22.80;60.60
1786;DHT22;890;48.158;11.540;2023-05-20T10:35:27;22.80;60.90
1786;DHT22;890;48.158;11.540;2023-05-20T10:37:54;22.90;60.40
1786;DHT22;890;48.158;11.540;2023-05-20T10:40:30;23.00;61.10
1786;DHT22;890;48.158;11.540;2023-05-20T10:42:56;23.60;64.10
1786;DHT22;890;48.158;11.540;2023-05-20T10:45:32;24.60;63.60
1786;DHT22;890;48.158;11.540;2023-05-20T10:48:01;25.10;60.20
1786;DHT22;890;48.158;11.540;2023-05-20T10:50:34;25.60;59.70
1786;DHT22;890;48.158;11.540;2023-05-20T10:53:11;26.00;58.20
1786;DHT22;890;48.158;11.540;2023-05-20T10:55:39;26.70;57.10
1786;DHT22;890;48.158;11.540;2023-05-20T10:58:06;27.50;56.00
1786;DHT22;890;48.158;11.540;2023-05-20T11:00:35;27.90;54.80
1786;DHT22;890;48.158;11.540;2023-05-20T11:03:02;27.90;53.20
1786;DHT22;890;48.158;11.540;2023-05-20T11:05:29;27.80;51.80
1786;DHT22;890;48.158;11.540;2023-05-20T11:08:03;27.80;51.80
1786;DHT22;890;48.158;11.540;2023-05-20T11:10:28;27.70;51.30
1786;DHT22;890;48.158;11.540;2023-05-20T11:12:55;28.00;52.00
1786;DHT22;890;48.158;11.540;2023-05-20T11:15:21;28.30;51.80
1786;DHT22;890;48.158;11.540;2023-05-20T11:17:56;28.80;51.20
1786;DHT22;890;48.158;11.540;2023-05-20T11:20:23;28.60;48.90
1786;DHT22;890;48.158;11.540;2023-05-20T11:22:53;28.20;48.80
1786;DHT22;890;48.158;11.540;2023-05-20T11:25:19;28.10;49.10
1786;DHT22;890;48.158;11.540;2023-05-20T11:27:46;28.30;49.60
1786;DHT22;890;48.158;11.540;2023-05-20T11:30:15;28.90;49.80
1786;DHT22;890;48.158;11.540;2023-05-20T11:33:02;29.60;48.20
1786;DHT22;890;48.158;11.540;2023-05-20T11:35:29;30.20;46.60
1786;DHT22;890;48.158;11.540;2023-05-20T11:37:57;30.60;47.10
1786;DHT22;890;48.158;11.540;2023-05-20T11:40:26;30.40;46.50
1786;DHT22;890;48.158;11.540;2023-05-20T11:42:53;30.20;46.50
1786;DHT22;890;48.158;11.540;2023-05-20T11:45:19;30.00;46.50
1786;DHT22;890;48.158;11.540;2023-05-20T11:47:45;29.90;46.50
1786;DHT22;890;48.158;11.540;2023-05-20T11:50:16;29.90;46.80
1786;DHT22;890;48.158;11.540;2023-05-20T11:52:43;30.10;46.90
1786;DHT22;890;48.158;11.540;2023-05-20T11:55:13;30.50;46.90
1786;DHT22;890;48.158;11.540;2023-05-20T11:57:39;30.90;46.10
1786;DHT22;890;48.158;11.540;2023-05-20T12:00:06;31.20;45.90
1786;DHT22;890;48.158;11.540;2023-05-20T12:02:34;31.50;45.00
1786;DHT22;890;48.158;11.540;2023-05-20T12:05:00;31.50;44.10
1786;DHT22;890;48.158;11.540;2023-05-20T12:07:26;31.10;44.00
1786;DHT22;890;48.158;11.540;2023-05-20T12:09:52;31.70;44.00
1786;DHT22;890;48.158;11.540;2023-05-20T12:12:18;31.20;43.30
1786;DHT22;890;48.158;11.540;2023-05-20T12:14:44;31.20;43.50
1786;DHT22;890;48.158;11.540;2023-05-20T12:17:10;31.30;43.30
1786;DHT22;890;48.158;11.540;2023-05-20T12:19:35;31.50;43.10
1786;DHT22;890;48.158;11.540;2023-05-20T12:22:01;31.30;42.30
1786;DHT22;890;48.158;11.540;2023-05-20T12:24:27;30.80;42.30
1786;DHT22;890;48.158;11.540;2023-05-20T12:26:52;30.60;42.80
1786;DHT22;890;48.158;11.540;2023-05-20T12:29:18;30.30;42.90
1786;DHT22;890;48.158;11.540;2023-05-20T12:31:43;30.10;43.00
1786;DHT22;890;48.158;11.540;2023-05-20T12:34:09;30.00;42.80
1786;DHT22;890;48.158;11.540;2023-05-20T12:36:34;29.40;42.80
1786;DHT22;890;48.158;11.540;2023-05-20T12:39:00;28.90;43.60
1786;DHT22;890;48.158;11.540;2023-05-20T12:41:25;28.40;44.60
1786;DHT22;890;48.158;11.540;2023-05-20T12:43:51;27.90;44.90
1786;DHT22;890;48.158;11.540;2023-05-20T12:46:17;27.60;45.60
1786;DHT22;890;48.158;11.540;2023-05-20T12:48:43;27.40;46.10
1786;DHT22;890;48.158;11.540;2023-05-20T12:51:08;27.30;47.30
1786;DHT22;890;48.158;11.540;2023-05-20T12:53:34;27.20;47.30
1786;DHT22;890;48.158;11.540;2023-05-20T12:56:00;27.00;47.30
1786;DHT22;890;48.158;11.540;2023-05-20T12:58:25;26.90;47.50
1786;DHT22;890;48.158;11.540;2023-05-20T13:00:51;26.80;47.00
1786;DHT22;890;48.158;11.540;2023-05-20T13:03:17;26.60;46.80
1786;DHT22;890;48.158;11.540;2023-05-20T13:05:42;26.30;46.80
1786;DHT22;890;48.158;11.540;2023-05-20T13:08:08;26.00;47.30
1786;DHT22;890;48.158;11.540;2023-05-20T13:10:35;25.90;47.70
1786;DHT22;890;48.158;11.540;2023-05-20T13:13:00;25.90;48.20
1786;DHT22;890;48.158;11.540;2023-05-20T13:15:26;26.00;48.50
1786;DHT22;890;48.158;11.540;2023-05-20T13:17:51;26.10;48.30
1786;DHT22;890;48.158;11.540;2023-05-20T13:20:18;25.80;48.40
1786;DHT22;890;48.158;11.540;2023-05-20T13:22:44;25.90;48.90
1786;DHT22;890;48.158;11.540;2023-05-20T13:25:09;25.80;48.50
1786;DHT22;890;48.158;11.540;2023-05-20T13:27:35;25.70;48.70
1786;DHT22;890;48.158;11.540;2023-05-20T13:30:01;25.60;48.80
1786;DHT22;890;48.158;11.540;2023-05-20T13:32:27;25.50;49.10
1786;DHT22;890;48.158;11.540;2023-05-20T13:34:52;25.50;49.00
1786;DHT22;890;48.158;11.540;2023-05-20T13:37:18;25.50;49.20
1786;DHT22;890;48.158;11.540;2023-05-20T13:39:44;25.30;49.00
1786;DHT22;890;48.158;11.540;2023-05-20T13:42:09;25.10;49.00
1786;DHT22;890;48.158;11.540;2023-05-20T13:44:35;25.00;49.00
1786;DHT22;890;48.158;11.540;2023-05-20T13:47:00;24.90;49.00
1786;DHT22;890;48.158;11.540;2023-05-20T13:49:26;24.90;48.50
1786;DHT22;890;48.158;11.540;2023-05-20T13:51:51;24.90;48.50
1786;DHT22;890;48.158;11.540;2023-05-20T13:54:17;25.00;48.60
1786;DHT22;890;48.158;11.540;2023-05-20T13:56:43;25.00;48.70
1786;DHT22;890;48.158;11.540;2023-05-20T13:59:08;25.10;48.80
1786;DHT22;890;48.158;11.540;2023-05-20T14:01:34;25.10;48.90
1786;DHT22;890;48.158;11.540;2023-05-20T14:03:59;25.10;49.10
1786;DHT22;890;48.158;11.540;2023-05-20T14:06:26;25.20;49.40
1786;DHT22;890;48.158;11.540;2023-05-20T14:08:55;25.20;49.40
1786;DHT22;890;48.158;11.540;2023-05-20T14:11:21;25.20;49.60
1786;DHT22;890;48.158;11.540;2023-05-20T14:13:46;25.20;49.60
1786;DHT22;890;48.158;11.540;2023-05-20T14:16:12;25.20;49.90
1786;DHT22;890;48.158;11.540;2023-05-20T14:18:38;25.00;50.30
1786;DHT22;890;48.158;11.540;2023-05-20T14:21:03;24.90;50.80
1786;DHT22;890;48.158;11.540;2023-05-20T14:23:29;24.80;51.10
1786;DHT22;890;48.158;11.540;2023-05-20T14:25:54;24.70;51.40
1786;DHT22;890;48.158;11.540;2023-05-20T14:28:20;24.60;51.50
1786;DHT22;890;48.158;11.540;2023-05-20T14:30:46;24.60;51.90
1786;DHT22;890;48.158;11.540;2023-05-20T14:33:11;24.60;52.10
1786;DHT22;890;48.158;11.540;2023-05-20T14:35:37;24.50;52.30
1786;DHT22;890;48.158;11.540;2023-05-20T14:38:02;24.50;52.40
1786;DHT22;890;48.158;11.540;2023-05-20T14:40:28;24.40;52.40
1786;DHT22;890;48.158;11.540;2023-05-20T14:42:53;24.40;52.70
1786;DHT22;890;48.158;11.540;2023-05-20T14:45:19;24.20;52.70
1786;DHT22;890;48.158;11.540;2023-05-20T14:47:45;24.20;53.00
1786;DHT22;890;48.158;11.540;2023-05-20T14:50:10;24.30;53.20
1786;DHT22;890;48.158;11.540;2023-05-20T14:52:36;24.30;53.30
1786;DHT22;890;48.158;11.540;2023-05-20T14:55:02;24.40;53.40
1786;DHT22;890;48.158;11.540;2023-05-20T14:57:27;24.30;53.40
1786;DHT22;890;48.158;11.540;2023-05-20T14:59:53;24.30;53.50
1786;DHT22;890;48.158;11.540;2023-05-20T15:02:19;24.30;53.80
1786;DHT22;890;48.158;11.540;2023-05-20T15:04:44;24.30;53.80
1786;DHT22;890;48.158;11.540;2023-05-20T15:07:12;24.30;53.90
1786;DHT22;890;48.158;11.540;2023-05-20T15:09:38;24.20;53.80
1786;DHT22;890;48.158;11.540;2023-05-20T15:12:04;24.20;54.10
1786;DHT22;890;48.158;11.540;2023-05-20T15:14:30;24.20;54.30
1786;DHT22;890;48.158;11.540;2023-05-20T15:16:56;24.20;54.40
1786;DHT22;890;48.158;11.540;2023-05-20T15:19:21;24.20;54.30
1786;DHT22;890;48.158;11.540;2023-05-20T15:21:47;24.20;54.30
1786;DHT22;890;48.158;11.540;2023-05-20T15:24:13;24.20;54.40
1786;DHT22;890;48.158;11.540;2023-05-20T15:26:39;24.20;54.20
1786;DHT22;890;48.158;11.540;2023-05-20T15:29:05;24.10;54.20
1786;DHT22;890;48.158;11.540;2023-05-20T15:31:31;24.10;54.10
1786;DHT22;890;48.158;11.540;2023-05-20T15:33:56;24.10;54.20
1786;DHT22;890;48.158;11.540;2023-05-20T15:36:22;24.10;54.30
1786;DHT22;890;48.158;11.540;2023-05-20T15:38:48;24.10;54.40
1786;DHT22;890;48.158;11.540;2023-05-20T15:41:14;24.10;54.30
1786;DHT22;890;48.158;11.540;2023-05-20T15:43:40;24.20;54.70
1786;DHT22;890;48.158;11.540;2023-05-20T15:46:06;24.20;54.20
1786;DHT22;890;48.158;11.540;2023-05-20T15:48:32;24.20;54.10
1786;DHT22;890;48.158;11.540;2023-05-20T15:50:59;24.20;53.80
1786;DHT22;890;48.158;11.540;2023-05-20T15:53:25;24.20;53.40
1786;DHT22;890;48.158;11.540;2023-05-20T15:55:50;24.20;53.60
1786;DHT22;890;48.158;11.540;2023-05-20T15:58:16;24.30;53.60
1786;DHT22;890;48.158;11.540;2023-05-20T16:00:42;24.30;53.60
1786;DHT22;890;48.158;11.540;2023-05-20T16:03:08;24.40;53.60
1786;DHT22;890;48.158;11.540;2023-05-20T16:05:34;24.40;53.40
1786;DHT22;890;48.158;11.540;2023-05-20T16:08:00;24.40;53.40